Howe, Pennsylvania
Current Conditions -  °F | °C
As of 1:48 AM on Monday 24 Nov 2014 (Local Time) from KCXY Reporting Station
Moderate Rain Moderate Rain  
Wind Chill: 51°   Ceiling: 400
Heat Index: 51°   Visibility: 3mi
Dew Point: 50°   Wind: 10mph
Humidity: 96%   Direction: 100°E
Pressure: 29.66"   Gusts: NA
Location:  40.4932°N, 77.217°W
Report Text: KCXY 240648Z AUTO 10009KT 3SM RA BR BKN004 OVC008 11/10 A2966 RMK AO2 PRESFR P0015 T01060100
Loading
Personal Weather Stations






























Interactive Weather Map New forecast layout! Learn more

10-Day Weather Forecast

Advertisements
Track Severe Weather on mobile